sensor_id;sensor_type;location;lat;lon;timestamp;P1;durP1;ratioP1;P2;durP2;ratioP2
70951;SDS011;69214;55.880;37.542;2023-04-19T00:01:48;8.80;;;3.30;;
70951;SDS011;69214;55.880;37.542;2023-04-19T00:04:14;10.50;;;3.20;;
70951;SDS011;69214;55.880;37.542;2023-04-19T00:06:40;8.23;;;3.30;;
70951;SDS011;69214;55.880;37.542;2023-04-19T00:09:07;7.00;;;2.72;;
70951;SDS011;69214;55.880;37.542;2023-04-19T00:11:33;7.32;;;2.95;;
70951;SDS011;69214;55.880;37.542;2023-04-19T00:13:59;12.63;;;3.27;;
70951;SDS011;69214;55.880;37.542;2023-04-19T00:16:24;8.48;;;3.20;;
70951;SDS011;69214;55.880;37.542;2023-04-19T00:18:50;7.63;;;2.60;;
70951;SDS011;69214;55.880;37.542;2023-04-19T00:21:16;8.63;;;3.20;;
70951;SDS011;69214;55.880;37.542;2023-04-19T00:23:41;8.23;;;2.58;;
70951;SDS011;69214;55.880;37.542;2023-04-19T00:26:07;10.93;;;3.60;;
70951;SDS011;69214;55.880;37.542;2023-04-19T00:28:36;10.98;;;3.10;;
70951;SDS011;69214;55.880;37.542;2023-04-19T00:31:01;11.32;;;2.50;;
70951;SDS011;69214;55.880;37.542;2023-04-19T00:33:27;11.27;;;3.23;;
70951;SDS011;69214;55.880;37.542;2023-04-19T00:35:55;7.22;;;2.97;;
70951;SDS011;69214;55.880;37.542;2023-04-19T00:38:21;7.83;;;2.60;;
70951;SDS011;69214;55.880;37.542;2023-04-19T00:40:47;7.65;;;2.97;;
70951;SDS011;69214;55.880;37.542;2023-04-19T00:43:16;7.67;;;2.23;;
70951;SDS011;69214;55.880;37.542;2023-04-19T00:45:44;7.82;;;2.95;;
70951;SDS011;69214;55.880;37.542;2023-04-19T00:48:12;9.02;;;2.65;;
70951;SDS011;69214;55.880;37.542;2023-04-19T00:50:38;8.05;;;2.60;;
70951;SDS011;69214;55.880;37.542;2023-04-19T00:53:06;8.30;;;2.92;;
70951;SDS011;69214;55.880;37.542;2023-04-19T00:55:32;5.30;;;1.80;;
70951;SDS011;69214;55.880;37.542;2023-04-19T00:57:57;7.40;;;2.55;;
70951;SDS011;69214;55.880;37.542;2023-04-19T01:00:24;8.63;;;2.85;;
70951;SDS011;69214;55.880;37.542;2023-04-19T01:02:50;6.60;;;2.67;;
70951;SDS011;69214;55.880;37.542;2023-04-19T01:05:17;7.13;;;2.90;;
70951;SDS011;69214;55.880;37.542;2023-04-19T01:07:43;9.63;;;2.40;;
70951;SDS011;69214;55.880;37.542;2023-04-19T01:10:13;7.47;;;2.63;;
70951;SDS011;69214;55.880;37.542;2023-04-19T01:12:39;7.18;;;2.47;;
70951;SDS011;69214;55.880;37.542;2023-04-19T01:15:05;6.90;;;2.13;;
70951;SDS011;69214;55.880;37.542;2023-04-19T01:17:32;6.60;;;2.53;;
70951;SDS011;69214;55.880;37.542;2023-04-19T01:20:02;6.93;;;2.65;;
70951;SDS011;69214;55.880;37.542;2023-04-19T01:22:30;5.72;;;2.40;;
70951;SDS011;69214;55.880;37.542;2023-04-19T01:24:56;8.30;;;2.40;;
70951;SDS011;69214;55.880;37.542;2023-04-19T01:27:23;5.13;;;1.77;;
70951;SDS011;69214;55.880;37.542;2023-04-19T01:29:49;9.07;;;2.60;;
70951;SDS011;69214;55.880;37.542;2023-04-19T01:32:16;6.50;;;2.45;;
70951;SDS011;69214;55.880;37.542;2023-04-19T01:34:41;7.53;;;2.43;;
70951;SDS011;69214;55.880;37.542;2023-04-19T01:37:07;6.45;;;2.17;;
70951;SDS011;69214;55.880;37.542;2023-04-19T01:39:33;7.65;;;2.90;;
70951;SDS011;69214;55.880;37.542;2023-04-19T01:41:59;5.07;;;1.53;;
70951;SDS011;69214;55.880;37.542;2023-04-19T01:44:25;8.82;;;2.65;;
70951;SDS011;69214;55.880;37.542;2023-04-19T01:46:51;7.45;;;2.30;;
70951;SDS011;69214;55.880;37.542;2023-04-19T01:49:17;6.27;;;2.33;;
70951;SDS011;69214;55.880;37.542;2023-04-19T01:51:43;7.20;;;2.15;;
70951;SDS011;69214;55.880;37.542;2023-04-19T01:54:08;9.37;;;2.97;;
70951;SDS011;69214;55.880;37.542;2023-04-19T01:56:34;8.75;;;2.38;;
70951;SDS011;69214;55.880;37.542;2023-04-19T01:59:00;9.45;;;2.53;;
70951;SDS011;69214;55.880;37.542;2023-04-19T02:01:26;6.23;;;2.67;;
70951;SDS011;69214;55.880;37.542;2023-04-19T02:03:52;5.82;;;1.92;;
70951;SDS011;69214;55.880;37.542;2023-04-19T02:06:18;5.18;;;1.85;;
70951;SDS011;69214;55.880;37.542;2023-04-19T02:08:44;7.53;;;2.50;;
70951;SDS011;69214;55.880;37.542;2023-04-19T02:11:10;12.30;;;3.10;;
70951;SDS011;69214;55.880;37.542;2023-04-19T02:13:40;7.22;;;2.53;;
70951;SDS011;69214;55.880;37.542;2023-04-19T02:16:06;6.27;;;2.20;;
70951;SDS011;69214;55.880;37.542;2023-04-19T02:18:32;8.90;;;2.75;;
70951;SDS011;69214;55.880;37.542;2023-04-19T02:21:08;7.78;;;1.73;;
70951;SDS011;69214;55.880;37.542;2023-04-19T02:23:35;6.68;;;2.58;;
70951;SDS011;69214;55.880;37.542;2023-04-19T02:26:02;6.93;;;2.50;;
70951;SDS011;69214;55.880;37.542;2023-04-19T02:28:31;7.43;;;2.37;;
70951;SDS011;69214;55.880;37.542;2023-04-19T02:30:57;8.77;;;2.67;;
70951;SDS011;69214;55.880;37.542;2023-04-19T02:33:24;6.97;;;2.35;;
70951;SDS011;69214;55.880;37.542;2023-04-19T02:35:51;8.37;;;3.13;;
70951;SDS011;69214;55.880;37.542;2023-04-19T02:38:17;8.57;;;2.42;;
70951;SDS011;69214;55.880;37.542;2023-04-19T02:40:43;6.18;;;2.60;;
70951;SDS011;69214;55.880;37.542;2023-04-19T02:43:08;7.03;;;2.77;;
70951;SDS011;69214;55.880;37.542;2023-04-19T02:45:34;8.52;;;2.88;;
70951;SDS011;69214;55.880;37.542;2023-04-19T02:48:01;8.40;;;2.33;;
70951;SDS011;69214;55.880;37.542;2023-04-19T02:50:27;7.97;;;2.33;;
70951;SDS011;69214;55.880;37.542;2023-04-19T02:52:53;9.20;;;2.58;;
70951;SDS011;69214;55.880;37.542;2023-04-19T02:55:20;6.43;;;2.28;;
70951;SDS011;69214;55.880;37.542;2023-04-19T02:57:51;5.82;;;2.10;;
70951;SDS011;69214;55.880;37.542;2023-04-19T03:00:17;7.40;;;2.90;;
70951;SDS011;69214;55.880;37.542;2023-04-19T03:02:56;6.95;;;2.20;;
70951;SDS011;69214;55.880;37.542;2023-04-19T03:05:23;6.82;;;2.40;;
70951;SDS011;69214;55.880;37.542;2023-04-19T03:07:48;8.17;;;2.27;;
70951;SDS011;69214;55.880;37.542;2023-04-19T03:10:14;7.60;;;2.90;;
70951;SDS011;69214;55.880;37.542;2023-04-19T03:12:40;6.68;;;2.35;;
70951;SDS011;69214;55.880;37.542;2023-04-19T03:15:07;7.90;;;2.53;;
70951;SDS011;69214;55.880;37.542;2023-04-19T03:17:34;7.68;;;2.67;;
70951;SDS011;69214;55.880;37.542;2023-04-19T03:20:00;6.40;;;2.53;;
70951;SDS011;69214;55.880;37.542;2023-04-19T03:22:28;7.45;;;2.80;;
70951;SDS011;69214;55.880;37.542;2023-04-19T03:24:54;7.95;;;2.75;;
70951;SDS011;69214;55.880;37.542;2023-04-19T03:27:21;6.78;;;2.28;;
70951;SDS011;69214;55.880;37.542;2023-04-19T03:29:54;8.77;;;2.83;;
70951;SDS011;69214;55.880;37.542;2023-04-19T03:32:20;7.95;;;2.42;;
70951;SDS011;69214;55.880;37.542;2023-04-19T03:34:46;7.05;;;2.40;;
70951;SDS011;69214;55.880;37.542;2023-04-19T03:37:14;8.88;;;2.70;;
70951;SDS011;69214;55.880;37.542;2023-04-19T03:39:40;6.22;;;2.47;;
70951;SDS011;69214;55.880;37.542;2023-04-19T03:42:10;8.17;;;2.50;;
70951;SDS011;69214;55.880;37.542;2023-04-19T03:44:56;8.30;;;2.50;;
70951;SDS011;69214;55.880;37.542;2023-04-19T03:47:24;7.70;;;2.60;;
70951;SDS011;69214;55.880;37.542;2023-04-19T03:49:54;6.07;;;2.15;;
70951;SDS011;69214;55.880;37.542;2023-04-19T03:52:20;10.60;;;3.10;;
70951;SDS011;69214;55.880;37.542;2023-04-19T03:54:45;4.67;;;1.77;;
70951;SDS011;69214;55.880;37.542;2023-04-19T03:57:24;7.97;;;1.90;;
70951;SDS011;69214;55.880;37.542;2023-04-19T03:59:50;6.85;;;2.53;;
70951;SDS011;69214;55.880;37.542;2023-04-19T04:02:17;8.97;;;2.40;;
70951;SDS011;69214;55.880;37.542;2023-04-19T04:04:43;9.90;;;2.70;;
70951;SDS011;69214;55.880;37.542;2023-04-19T04:07:08;6.50;;;2.40;;
70951;SDS011;69214;55.880;37.542;2023-04-19T04:09:34;8.30;;;2.27;;
70951;SDS011;69214;55.880;37.542;2023-04-19T04:12:01;9.63;;;2.50;;
70951;SDS011;69214;55.880;37.542;2023-04-19T04:14:28;6.88;;;2.65;;
70951;SDS011;69214;55.880;37.542;2023-04-19T04:16:54;6.88;;;2.08;;
70951;SDS011;69214;55.880;37.542;2023-04-19T04:19:19;6.30;;;2.40;;
70951;SDS011;69214;55.880;37.542;2023-04-19T04:21:46;7.70;;;2.65;;
70951;SDS011;69214;55.880;37.542;2023-04-19T04:24:14;6.82;;;2.70;;
70951;SDS011;69214;55.880;37.542;2023-04-19T04:26:56;8.55;;;2.38;;
70951;SDS011;69214;55.880;37.542;2023-04-19T04:29:27;5.47;;;2.33;;
70951;SDS011;69214;55.880;37.542;2023-04-19T04:31:55;6.70;;;2.80;;
70951;SDS011;69214;55.880;37.542;2023-04-19T04:34:25;9.70;;;2.35;;
70951;SDS011;69214;55.880;37.542;2023-04-19T04:37:00;9.30;;;2.38;;
70951;SDS011;69214;55.880;37.542;2023-04-19T04:39:27;7.10;;;2.45;;
70951;SDS011;69214;55.880;37.542;2023-04-19T04:41:53;9.95;;;2.50;;
70951;SDS011;69214;55.880;37.542;2023-04-19T04:44:18;8.57;;;2.57;;
70951;SDS011;69214;55.880;37.542;2023-04-19T04:46:47;10.15;;;2.85;;
70951;SDS011;69214;55.880;37.542;2023-04-19T04:49:18;6.88;;;2.55;;
70951;SDS011;69214;55.880;37.542;2023-04-19T04:51:44;12.23;;;2.50;;
70951;SDS011;69214;55.880;37.542;2023-04-19T04:54:10;6.75;;;2.30;;
70951;SDS011;69214;55.880;37.542;2023-04-19T04:56:35;14.37;;;2.50;;
70951;SDS011;69214;55.880;37.542;2023-04-19T04:59:01;11.73;;;2.47;;
70951;SDS011;69214;55.880;37.542;2023-04-19T05:01:32;5.13;;;1.83;;
70951;SDS011;69214;55.880;37.542;2023-04-19T05:03:59;6.47;;;1.90;;
70951;SDS011;69214;55.880;37.542;2023-04-19T05:06:25;9.47;;;2.57;;
70951;SDS011;69214;55.880;37.542;2023-04-19T05:08:52;7.18;;;2.72;;
70951;SDS011;69214;55.880;37.542;2023-04-19T05:11:29;7.82;;;2.08;;
70951;SDS011;69214;55.880;37.542;2023-04-19T05:13:55;4.85;;;1.73;;
70951;SDS011;69214;55.880;37.542;2023-04-19T05:16:21;10.90;;;2.00;;
70951;SDS011;69214;55.880;37.542;2023-04-19T05:18:48;4.72;;;1.48;;
70951;SDS011;69214;55.880;37.542;2023-04-19T05:21:14;6.57;;;1.73;;
70951;SDS011;69214;55.880;37.542;2023-04-19T05:23:41;7.00;;;1.77;;
70951;SDS011;69214;55.880;37.542;2023-04-19T05:26:07;5.18;;;1.50;;
70951;SDS011;69214;55.880;37.542;2023-04-19T05:28:37;4.97;;;1.60;;
70951;SDS011;69214;55.880;37.542;2023-04-19T05:31:11;5.53;;;1.92;;
70951;SDS011;69214;55.880;37.542;2023-04-19T05:33:49;5.47;;;1.50;;
70951;SDS011;69214;55.880;37.542;2023-04-19T05:36:15;4.93;;;1.70;;
70951;SDS011;69214;55.880;37.542;2023-04-19T05:38:41;7.93;;;1.93;;
70951;SDS011;69214;55.880;37.542;2023-04-19T05:41:06;6.85;;;1.77;;
70951;SDS011;69214;55.880;37.542;2023-04-19T05:43:32;5.27;;;1.67;;
70951;SDS011;69214;55.880;37.542;2023-04-19T05:45:58;4.32;;;1.38;;
70951;SDS011;69214;55.880;37.542;2023-04-19T05:48:24;3.83;;;1.20;;
70951;SDS011;69214;55.880;37.542;2023-04-19T05:51:02;5.27;;;1.53;;
70951;SDS011;69214;55.880;37.542;2023-04-19T05:53:45;6.70;;;2.03;;
70951;SDS011;69214;55.880;37.542;2023-04-19T05:56:10;8.75;;;2.00;;
70951;SDS011;69214;55.880;37.542;2023-04-19T05:58:36;4.63;;;1.80;;
70951;SDS011;69214;55.880;37.542;2023-04-19T06:01:02;4.80;;;1.40;;
70951;SDS011;69214;55.880;37.542;2023-04-19T06:03:28;4.82;;;1.60;;
70951;SDS011;69214;55.880;37.542;2023-04-19T06:05:55;2.55;;;1.00;;
70951;SDS011;69214;55.880;37.542;2023-04-19T06:08:22;10.67;;;1.50;;
70951;SDS011;69214;55.880;37.542;2023-04-19T06:10:48;4.43;;;1.23;;
70951;SDS011;69214;55.880;37.542;2023-04-19T06:13:14;3.97;;;1.50;;
70951;SDS011;69214;55.880;37.542;2023-04-19T06:15:41;4.10;;;1.57;;
70951;SDS011;69214;55.880;37.542;2023-04-19T06:18:07;3.05;;;1.00;;
70951;SDS011;69214;55.880;37.542;2023-04-19T06:20:35;4.72;;;1.52;;
70951;SDS011;69214;55.880;37.542;2023-04-19T06:23:02;3.05;;;1.25;;
70951;SDS011;69214;55.880;37.542;2023-04-19T06:25:28;4.03;;;1.20;;
70951;SDS011;69214;55.880;37.542;2023-04-19T06:27:54;3.97;;;0.90;;
70951;SDS011;69214;55.880;37.542;2023-04-19T06:30:20;4.88;;;1.40;;
70951;SDS011;69214;55.880;37.542;2023-04-19T06:32:46;3.23;;;0.80;;
70951;SDS011;69214;55.880;37.542;2023-04-19T06:35:13;3.78;;;1.02;;
70951;SDS011;69214;55.880;37.542;2023-04-19T06:37:39;5.35;;;1.27;;
70951;SDS011;69214;55.880;37.542;2023-04-19T06:40:06;3.35;;;1.20;;
70951;SDS011;69214;55.880;37.542;2023-04-19T06:42:33;4.40;;;1.27;;
70951;SDS011;69214;55.880;37.542;2023-04-19T06:44:59;5.28;;;1.70;;
70951;SDS011;69214;55.880;37.542;2023-04-19T06:47:25;4.18;;;1.00;;
70951;SDS011;69214;55.880;37.542;2023-04-19T06:49:51;4.90;;;1.58;;
70951;SDS011;69214;55.880;37.542;2023-04-19T06:52:16;6.13;;;1.80;;
70951;SDS011;69214;55.880;37.542;2023-04-19T06:54:48;4.72;;;1.70;;
70951;SDS011;69214;55.880;37.542;2023-04-19T06:57:15;4.82;;;1.60;;
70951;SDS011;69214;55.880;37.542;2023-04-19T06:59:41;6.68;;;1.75;;
70951;SDS011;69214;55.880;37.542;2023-04-19T07:02:07;6.87;;;1.90;;
70951;SDS011;69214;55.880;37.542;2023-04-19T07:04:33;6.30;;;2.33;;
70951;SDS011;69214;55.880;37.542;2023-04-19T07:06:59;5.37;;;2.27;;
70951;SDS011;69214;55.880;37.542;2023-04-19T07:09:25;6.85;;;2.25;;
70951;SDS011;69214;55.880;37.542;2023-04-19T07:11:50;7.75;;;2.38;;
70951;SDS011;69214;55.880;37.542;2023-04-19T07:14:16;5.73;;;2.47;;
70951;SDS011;69214;55.880;37.542;2023-04-19T07:16:43;8.25;;;2.65;;
70951;SDS011;69214;55.880;37.542;2023-04-19T07:19:11;7.43;;;2.28;;
70951;SDS011;69214;55.880;37.542;2023-04-19T07:21:37;6.75;;;2.00;;
70951;SDS011;69214;55.880;37.542;2023-04-19T07:24:04;6.23;;;2.30;;
70951;SDS011;69214;55.880;37.542;2023-04-19T07:26:31;5.47;;;2.30;;
70951;SDS011;69214;55.880;37.542;2023-04-19T07:28:57;4.15;;;2.10;;
70951;SDS011;69214;55.880;37.542;2023-04-19T07:31:23;4.95;;;2.25;;
70951;SDS011;69214;55.880;37.542;2023-04-19T07:33:50;4.97;;;2.10;;
70951;SDS011;69214;55.880;37.542;2023-04-19T07:36:16;6.10;;;1.90;;
70951;SDS011;69214;55.880;37.542;2023-04-19T07:38:42;5.32;;;2.30;;
70951;SDS011;69214;55.880;37.542;2023-04-19T07:41:08;5.65;;;2.50;;
70951;SDS011;69214;55.880;37.542;2023-04-19T07:43:34;8.73;;;2.23;;
70951;SDS011;69214;55.880;37.542;2023-04-19T07:46:00;5.03;;;1.75;;
70951;SDS011;69214;55.880;37.542;2023-04-19T07:48:27;4.82;;;2.20;;
70951;SDS011;69214;55.880;37.542;2023-04-19T07:50:53;9.40;;;2.30;;
70951;SDS011;69214;55.880;37.542;2023-04-19T07:53:19;4.10;;;1.63;;
70951;SDS011;69214;55.880;37.542;2023-04-19T07:55:45;7.07;;;1.65;;
70951;SDS011;69214;55.880;37.542;2023-04-19T07:58:11;4.80;;;1.70;;
70951;SDS011;69214;55.880;37.542;2023-04-19T08:00:36;4.73;;;1.80;;
70951;SDS011;69214;55.880;37.542;2023-04-19T08:03:02;3.28;;;1.45;;
70951;SDS011;69214;55.880;37.542;2023-04-19T08:05:28;6.43;;;1.43;;
70951;SDS011;69214;55.880;37.542;2023-04-19T08:07:56;6.30;;;1.67;;
70951;SDS011;69214;55.880;37.542;2023-04-19T08:10:21;4.72;;;1.83;;
70951;SDS011;69214;55.880;37.542;2023-04-19T08:12:48;3.92;;;1.25;;
70951;SDS011;69214;55.880;37.542;2023-04-19T08:15:14;5.47;;;1.67;;
70951;SDS011;69214;55.880;37.542;2023-04-19T08:17:40;4.63;;;1.70;;
70951;SDS011;69214;55.880;37.542;2023-04-19T08:20:09;5.47;;;1.45;;
70951;SDS011;69214;55.880;37.542;2023-04-19T08:22:39;4.57;;;1.48;;
70951;SDS011;69214;55.880;37.542;2023-04-19T08:25:05;4.63;;;1.23;;
70951;SDS011;69214;55.880;37.542;2023-04-19T08:27:31;3.80;;;1.13;;
70951;SDS011;69214;55.880;37.542;2023-04-19T08:29:57;3.53;;;1.13;;
70951;SDS011;69214;55.880;37.542;2023-04-19T08:32:23;4.03;;;1.20;;
70951;SDS011;69214;55.880;37.542;2023-04-19T08:34:49;4.60;;;1.30;;
70951;SDS011;69214;55.880;37.542;2023-04-19T08:37:15;5.97;;;1.60;;
70951;SDS011;69214;55.880;37.542;2023-04-19T08:39:40;6.30;;;1.70;;
70951;SDS011;69214;55.880;37.542;2023-04-19T08:42:07;6.13;;;1.65;;
70951;SDS011;69214;55.880;37.542;2023-04-19T08:44:35;8.55;;;1.55;;
70951;SDS011;69214;55.880;37.542;2023-04-19T08:47:05;8.43;;;1.40;;
70951;SDS011;69214;55.880;37.542;2023-04-19T08:49:35;4.30;;;1.40;;
70951;SDS011;69214;55.880;37.542;2023-04-19T08:52:01;3.45;;;1.35;;
70951;SDS011;69214;55.880;37.542;2023-04-19T08:54:28;4.20;;;1.42;;
70951;SDS011;69214;55.880;37.542;2023-04-19T08:56:57;3.78;;;1.20;;
70951;SDS011;69214;55.880;37.542;2023-04-19T08:59:24;5.73;;;1.37;;
70951;SDS011;69214;55.880;37.542;2023-04-19T09:01:50;4.10;;;0.93;;
70951;SDS011;69214;55.880;37.542;2023-04-19T09:04:17;5.57;;;1.42;;
70951;SDS011;69214;55.880;37.542;2023-04-19T09:06:43;4.30;;;1.33;;
70951;SDS011;69214;55.880;37.542;2023-04-19T09:09:16;5.03;;;1.30;;
70951;SDS011;69214;55.880;37.542;2023-04-19T09:11:50;3.22;;;1.00;;
70951;SDS011;69214;55.880;37.542;2023-04-19T09:14:16;4.80;;;1.10;;
70951;SDS011;69214;55.880;37.542;2023-04-19T09:16:44;3.43;;;1.00;;
70951;SDS011;69214;55.880;37.542;2023-04-19T09:19:10;5.88;;;1.08;;
70951;SDS011;69214;55.880;37.542;2023-04-19T09:21:37;3.05;;;0.95;;
70951;SDS011;69214;55.880;37.542;2023-04-19T09:24:03;4.53;;;1.50;;
70951;SDS011;69214;55.880;37.542;2023-04-19T09:26:30;5.47;;;1.23;;
70951;SDS011;69214;55.880;37.542;2023-04-19T09:31:30;5.53;;;1.48;;
70951;SDS011;69214;55.880;37.542;2023-04-19T09:34:17;5.18;;;1.50;;
70951;SDS011;69214;55.880;37.542;2023-04-19T09:36:43;4.10;;;1.25;;
70951;SDS011;69214;55.880;37.542;2023-04-19T09:39:09;5.15;;;1.38;;
70951;SDS011;69214;55.880;37.542;2023-04-19T09:41:51;4.20;;;1.10;;
70951;SDS011;69214;55.880;37.542;2023-04-19T09:44:19;8.52;;;1.70;;
70951;SDS011;69214;55.880;37.542;2023-04-19T09:46:45;4.15;;;1.23;;
70951;SDS011;69214;55.880;37.542;2023-04-19T09:51:42;6.05;;;1.42;;
70951;SDS011;69214;55.880;37.542;2023-04-19T09:54:11;5.80;;;1.40;;
70951;SDS011;69214;55.880;37.542;2023-04-19T09:56:38;4.90;;;1.70;;
70951;SDS011;69214;55.880;37.542;2023-04-19T09:59:05;4.50;;;1.40;;
70951;SDS011;69214;55.880;37.542;2023-04-19T10:01:36;6.88;;;1.80;;
70951;SDS011;69214;55.880;37.542;2023-04-19T10:04:20;3.53;;;1.20;;
70951;SDS011;69214;55.880;37.542;2023-04-19T10:06:48;4.90;;;1.50;;
70951;SDS011;69214;55.880;37.542;2023-04-19T10:09:15;5.13;;;1.60;;
70951;SDS011;69214;55.880;37.542;2023-04-19T10:11:43;7.40;;;2.00;;
70951;SDS011;69214;55.880;37.542;2023-04-19T10:14:14;4.57;;;1.50;;
70951;SDS011;69214;55.880;37.542;2023-04-19T10:16:41;4.57;;;1.48;;
70951;SDS011;69214;55.880;37.542;2023-04-19T10:19:08;4.87;;;1.30;;
70951;SDS011;69214;55.880;37.542;2023-04-19T10:21:38;5.88;;;1.60;;
70951;SDS011;69214;55.880;37.542;2023-04-19T10:24:07;5.93;;;1.70;;
70951;SDS011;69214;55.880;37.542;2023-04-19T10:32:26;5.70;;;1.50;;
70951;SDS011;69214;55.880;37.542;2023-04-19T10:34:53;7.15;;;1.60;;
70951;SDS011;69214;55.880;37.542;2023-04-19T10:37:22;3.87;;;1.20;;
70951;SDS011;69214;55.880;37.542;2023-04-19T10:39:50;4.70;;;1.27;;
70951;SDS011;69214;55.880;37.542;2023-04-19T10:42:16;5.43;;;1.40;;
70951;SDS011;69214;55.880;37.542;2023-04-19T10:45:08;6.30;;;1.30;;
70951;SDS011;69214;55.880;37.542;2023-04-19T10:47:53;5.00;;;1.42;;
70951;SDS011;69214;55.880;37.542;2023-04-19T10:50:20;5.37;;;1.17;;
70951;SDS011;69214;55.880;37.542;2023-04-19T10:52:48;4.95;;;1.25;;
70951;SDS011;69214;55.880;37.542;2023-04-19T10:55:14;5.18;;;1.25;;
70951;SDS011;69214;55.880;37.542;2023-04-19T11:00:38;5.63;;;1.40;;
70951;SDS011;69214;55.880;37.542;2023-04-19T11:06:14;4.85;;;1.27;;
70951;SDS011;69214;55.880;37.542;2023-04-19T11:08:45;8.65;;;1.30;;
70951;SDS011;69214;55.880;37.542;2023-04-19T11:11:12;3.70;;;1.20;;
70951;SDS011;69214;55.880;37.542;2023-04-19T11:13:42;4.67;;;1.37;;
70951;SDS011;69214;55.880;37.542;2023-04-19T11:16:08;7.47;;;1.30;;
70951;SDS011;69214;55.880;37.542;2023-04-19T11:18:35;6.05;;;1.23;;
70951;SDS011;69214;55.880;37.542;2023-04-19T11:21:00;4.73;;;1.67;;
70951;SDS011;69214;55.880;37.542;2023-04-19T11:23:26;5.03;;;1.40;;
70951;SDS011;69214;55.880;37.542;2023-04-19T11:25:54;4.22;;;1.20;;
70951;SDS011;69214;55.880;37.542;2023-04-19T11:28:20;2.17;;;0.57;;
70951;SDS011;69214;55.880;37.542;2023-04-19T11:30:48;3.42;;;0.95;;
70951;SDS011;69214;55.880;37.542;2023-04-19T11:33:15;4.28;;;1.10;;
70951;SDS011;69214;55.880;37.542;2023-04-19T11:35:48;3.83;;;1.20;;
70951;SDS011;69214;55.880;37.542;2023-04-19T11:38:15;3.10;;;0.90;;
70951;SDS011;69214;55.880;37.542;2023-04-19T11:40:41;3.73;;;1.30;;
70951;SDS011;69214;55.880;37.542;2023-04-19T11:43:07;3.92;;;1.08;;
70951;SDS011;69214;55.880;37.542;2023-04-19T11:45:36;4.88;;;1.30;;
70951;SDS011;69214;55.880;37.542;2023-04-19T11:48:06;4.63;;;1.40;;
70951;SDS011;69214;55.880;37.542;2023-04-19T11:50:42;6.30;;;1.80;;
70951;SDS011;69214;55.880;37.542;2023-04-19T11:55:46;3.15;;;1.05;;
70951;SDS011;69214;55.880;37.542;2023-04-19T12:01:06;4.13;;;1.35;;
70951;SDS011;69214;55.880;37.542;2023-04-19T12:03:34;3.70;;;1.13;;
70951;SDS011;69214;55.880;37.542;2023-04-19T12:06:05;5.33;;;1.30;;
70951;SDS011;69214;55.880;37.542;2023-04-19T12:08:38;4.43;;;1.50;;
70951;SDS011;69214;55.880;37.542;2023-04-19T12:11:10;4.72;;;1.20;;
70951;SDS011;69214;55.880;37.542;2023-04-19T12:13:35;4.33;;;1.27;;
70951;SDS011;69214;55.880;37.542;2023-04-19T12:16:07;5.07;;;1.17;;
70951;SDS011;69214;55.880;37.542;2023-04-19T12:18:46;4.35;;;1.40;;
70951;SDS011;69214;55.880;37.542;2023-04-19T12:21:27;4.15;;;1.45;;
70951;SDS011;69214;55.880;37.542;2023-04-19T12:23:57;3.75;;;1.33;;
70951;SDS011;69214;55.880;37.542;2023-04-19T12:26:27;4.60;;;1.30;;
70951;SDS011;69214;55.880;37.542;2023-04-19T12:28:57;5.20;;;1.70;;
70951;SDS011;69214;55.880;37.542;2023-04-19T12:31:24;6.45;;;1.27;;
70951;SDS011;69214;55.880;37.542;2023-04-19T12:33:50;5.72;;;1.58;;
70951;SDS011;69214;55.880;37.542;2023-04-19T12:36:15;3.00;;;0.90;;
70951;SDS011;69214;55.880;37.542;2023-04-19T12:38:41;3.67;;;1.30;;
70951;SDS011;69214;55.880;37.542;2023-04-19T12:41:07;5.43;;;1.35;;
70951;SDS011;69214;55.880;37.542;2023-04-19T12:43:33;4.43;;;1.00;;
70951;SDS011;69214;55.880;37.542;2023-04-19T12:45:58;3.08;;;1.00;;
70951;SDS011;69214;55.880;37.542;2023-04-19T12:48:25;3.45;;;1.33;;
70951;SDS011;69214;55.880;37.542;2023-04-19T12:50:51;4.10;;;1.10;;
70951;SDS011;69214;55.880;37.542;2023-04-19T12:53:17;5.03;;;1.10;;
70951;SDS011;69214;55.880;37.542;2023-04-19T12:55:43;3.83;;;1.27;;
70951;SDS011;69214;55.880;37.542;2023-04-19T12:58:14;4.80;;;1.00;;
70951;SDS011;69214;55.880;37.542;2023-04-19T13:00:40;3.95;;;0.85;;
70951;SDS011;69214;55.880;37.542;2023-04-19T13:03:07;3.93;;;1.27;;
70951;SDS011;69214;55.880;37.542;2023-04-19T13:05:33;3.17;;;1.15;;
70951;SDS011;69214;55.880;37.542;2023-04-19T13:07:58;5.30;;;1.10;;
70951;SDS011;69214;55.880;37.542;2023-04-19T13:10:24;4.13;;;1.30;;
70951;SDS011;69214;55.880;37.542;2023-04-19T13:12:50;4.47;;;1.42;;
70951;SDS011;69214;55.880;37.542;2023-04-19T13:15:16;3.63;;;1.23;;
70951;SDS011;69214;55.880;37.542;2023-04-19T13:17:41;3.70;;;1.30;;
70951;SDS011;69214;55.880;37.542;2023-04-19T13:20:07;3.83;;;1.33;;
70951;SDS011;69214;55.880;37.542;2023-04-19T13:22:34;5.13;;;1.25;;
70951;SDS011;69214;55.880;37.542;2023-04-19T13:25:00;3.17;;;1.00;;
70951;SDS011;69214;55.880;37.542;2023-04-19T13:27:25;3.22;;;1.10;;
70951;SDS011;69214;55.880;37.542;2023-04-19T13:29:53;4.10;;;1.20;;
70951;SDS011;69214;55.880;37.542;2023-04-19T13:32:19;5.83;;;1.10;;
70951;SDS011;69214;55.880;37.542;2023-04-19T13:34:45;4.78;;;1.00;;
70951;SDS011;69214;55.880;37.542;2023-04-19T13:37:10;3.90;;;1.00;;
70951;SDS011;69214;55.880;37.542;2023-04-19T13:39:36;5.00;;;1.17;;
70951;SDS011;69214;55.880;37.542;2023-04-19T13:42:03;3.83;;;1.10;;
70951;SDS011;69214;55.880;37.542;2023-04-19T13:44:29;3.77;;;1.10;;
70951;SDS011;69214;55.880;37.542;2023-04-19T13:46:55;4.00;;;1.40;;
70951;SDS011;69214;55.880;37.542;2023-04-19T13:49:21;4.07;;;0.95;;
70951;SDS011;69214;55.880;37.542;2023-04-19T13:51:47;3.20;;;0.70;;
70951;SDS011;69214;55.880;37.542;2023-04-19T13:54:13;4.67;;;1.00;;
70951;SDS011;69214;55.880;37.542;2023-04-19T13:56:41;6.13;;;1.48;;
70951;SDS011;69214;55.880;37.542;2023-04-19T13:59:07;2.92;;;0.95;;
70951;SDS011;69214;55.880;37.542;2023-04-19T14:01:34;3.17;;;0.73;;
70951;SDS011;69214;55.880;37.542;2023-04-19T14:04:00;3.40;;;0.90;;
70951;SDS011;69214;55.880;37.542;2023-04-19T14:06:26;4.25;;;1.13;;
70951;SDS011;69214;55.880;37.542;2023-04-19T14:08:52;3.87;;;1.03;;
70951;SDS011;69214;55.880;37.542;2023-04-19T14:11:18;2.35;;;0.90;;
70951;SDS011;69214;55.880;37.542;2023-04-19T14:13:43;4.40;;;1.17;;
70951;SDS011;69214;55.880;37.542;2023-04-19T14:16:09;4.00;;;1.00;;
70951;SDS011;69214;55.880;37.542;2023-04-19T14:18:35;3.70;;;0.80;;
70951;SDS011;69214;55.880;37.542;2023-04-19T14:21:01;3.50;;;0.73;;
70951;SDS011;69214;55.880;37.542;2023-04-19T14:23:27;5.93;;;1.20;;
70951;SDS011;69214;55.880;37.542;2023-04-19T14:25:52;3.28;;;1.02;;
70951;SDS011;69214;55.880;37.542;2023-04-19T14:28:18;5.93;;;1.20;;
70951;SDS011;69214;55.880;37.542;2023-04-19T14:30:44;3.10;;;0.80;;
70951;SDS011;69214;55.880;37.542;2023-04-19T14:33:09;3.30;;;0.88;;
70951;SDS011;69214;55.880;37.542;2023-04-19T14:35:35;3.63;;;1.07;;
70951;SDS011;69214;55.880;37.542;2023-04-19T14:38:01;5.53;;;1.20;;
70951;SDS011;69214;55.880;37.542;2023-04-19T14:40:27;4.65;;;1.10;;
70951;SDS011;69214;55.880;37.542;2023-04-19T14:42:52;3.03;;;1.00;;
70951;SDS011;69214;55.880;37.542;2023-04-19T14:45:18;7.07;;;1.60;;
70951;SDS011;69214;55.880;37.542;2023-04-19T14:47:44;4.40;;;1.60;;
70951;SDS011;69214;55.880;37.542;2023-04-19T14:50:10;5.35;;;1.10;;
70951;SDS011;69214;55.880;37.542;2023-04-19T14:52:36;4.57;;;1.10;;
70951;SDS011;69214;55.880;37.542;2023-04-19T14:55:02;5.57;;;1.40;;
70951;SDS011;69214;55.880;37.542;2023-04-19T14:57:28;5.45;;;1.00;;